Lees voor het posten de FAQ.

Als je iets zoekt op het forum kun je de zoekmachine raadplegen.

Onderwerp Replies Naam starter Datum
Pioneer vsx-1122 gaat in protect 12 gamepc2017 21-11-2019 15:33:16
hifi keten barco 12 macosoni 21-11-2019 12:53:42
Avies bij aanschaf Variac. 22 pascalbythree 21-11-2019 11:13:10
AU-D55X defect gaat aan gaat in protect 2 bandje 66 21-11-2019 01:33:18
Voeding Akai AKH-402.80XS subwoofer repareren 12 re-atari 21-11-2019 01:08:03
Zijn "volume-stappen" te wijzigen op HIFI set? 17 Max1966 20-11-2019 13:03:22
Hoe werkt voeding rond 1M0880 in Loewe subwoofer 525/ Individual sound subwoofer 4 Beeldbuisje 19-11-2019 14:51:09
Radio Technics SA5360 2 zumo 18-11-2019 19:06:55
Nad C162 voorversterker ruist/lichte brom met aanzetten 23 srpp 17-11-2019 12:12:14
Philips CD740/00B speler lade probleem 13 tussen plus en min 16-11-2019 20:56:18
Betrouwbar adres om Elco's kopen 80v 10000uf 11 barrye 15-11-2019 15:28:55
Autoradio incrementeel encoder kapot 7 HammieDuDe 13-11-2019 19:49:32
JBL sub 178 kreunt 4 pola 13-11-2019 16:23:02
onderbreken wikkeling trafo. 16 pietrog 13-11-2019 15:49:47
Elkatone B/70 17 Fons Caloris 10-11-2019 03:11:45
Audiofiele High-End nonsens, deel 2 Audiofiele High-End nonsens, deel 2 1 2 3 4 5 6 7 8 9 10 11 12 13 14 15 16 17 18 19 20 21 22 23 24 25 26 27 28 laatste 690 GJ_ 08-11-2019 20:08:36
Pick up ingang mengpaneel met voorzet (schakelaar) omvormen naar line in gaan ? 9 Herman - Belgie 08-11-2019 10:56:27
Actieve luidspreker defect Actieve luidspreker defect 1 2 laatste 33 Bram_1234 07-11-2019 21:06:51
Een snaar elektrische gitaar 3 bertbilnaat 07-11-2019 13:27:13
Subwoofer Monitor Audio Mass W200 komt niet uit standby 14 Rontronix 07-11-2019 09:08:09
Audio Matrix / Router 7 PD2NLX 06-11-2019 13:44:00
Onkyo geen 5v 3 sanscorp 05-11-2019 20:10:56
Marantz sr6004 gaat in protect 8 gamepc2017 05-11-2019 17:48:27
onbekend smps ic voeding Marantz M-CR610 4 hobbyelektro 04-11-2019 23:34:14
Pioneer A-Z560 stereotoren 13 nvr78 04-11-2019 21:23:38
XXL 600 PRO versterker werkt maar relais neemt te veel tijd in opstart 16 Den titte 04-11-2019 10:45:18
Subwoofer bassen zijn niet meer duidelijk Subwoofer bassen zijn niet meer duidelijk 1 2 laatste 27 revoldius 02-11-2019 23:43:59
lijnsignaal verkrijgen uit luidsprekersignaal 5 white ghost 02-11-2019 20:14:24
Gesloten hex file digilog stereocoder 0 Patsat 01-11-2019 19:08:29
Bga reflow Bga reflow 1 2 laatste 35 vraag1 01-11-2019 17:04:58
Kleuren van draden met audio signaal 15 Groene ridder 01-11-2019 15:45:35
Denon PMA-6.5 0 Igi5 31-10-2019 23:19:50
REL Strata 5 subwoofer klik uit woofer elke seconde 4 Porrit 31-10-2019 11:24:59
120 volt versterker gebruiken via omvormer? 15 GP209 29-10-2019 16:07:52
Phono preamp 20 Tube156 29-10-2019 15:22:37
Mp3 geluiden op sd card 6 janes 28-10-2019 23:39:04
Sony STR DE335 weer aan na uitzetten 5 staafken 28-10-2019 09:19:08
RIAA Pre-Amp uit mijn Archief RIAA Pre-Amp uit mijn Archief 1 2 laatste 26 blackdog 27-10-2019 22:11:52
John Linsley Hood 30-Watt versterker 19 blackdog 27-10-2019 15:58:24
Squeezebox van Logitech ca. 8 jaar oud 2 Radar65 26-10-2019 20:48:37
TX-NR807 Onkyo versterker gaat aan geen geluid. 8 bandje 66 26-10-2019 18:16:57
Storing via luidsprekers door radar Storing via luidsprekers door radar 1 2 laatste 29 Testedoene 26-10-2019 18:04:54
Dap Pro Soundmate 2 14 René DG 25-10-2019 21:31:24
Stroombegrenzing opstarten zeer zware versterker Stroombegrenzing opstarten zeer zware versterker 1 2 3 laatste 59 maus0611 24-10-2019 23:28:45
Denon PMA 750/770 LCD display repair/replacement 5 robkr 24-10-2019 15:47:30
Bose Lifestyle of 321 set Bose Lifestyle of 321 set 1 2 laatste 25 Tiempie 23-10-2019 03:03:15
Sphinx project 4 / 14 service/repair manual gezocht 3 E88CC 22-10-2019 14:50:58
Quad 303 22 anjer 21-10-2019 20:07:39
Dynacord S900 12 Funny100 20-10-2019 23:46:33
Sony tuner st-2950f gedeeltelijk uitgevallen 23 R.B. 20-10-2019 22:35:12